createdAt,value
2023-03-06T00:00:56.466Z,66.45
2023-03-06T00:01:58.959Z,66.30
2023-03-06T00:03:00.842Z,65.77
2023-03-06T00:04:02.783Z,65.59
2023-03-06T00:05:05.028Z,65.40
2023-03-06T00:06:07.249Z,65.35
2023-03-06T00:07:09.448Z,65.76
2023-03-06T00:08:11.620Z,65.97
2023-03-06T00:09:13.521Z,65.62
2023-03-06T00:10:18.232Z,65.59
2023-03-06T00:11:21.068Z,65.23
2023-03-06T00:12:23.305Z,64.99
2023-03-06T00:13:26.619Z,65.53
2023-03-06T00:14:28.615Z,66.20
2023-03-06T00:15:30.924Z,67.02
2023-03-06T00:16:32.960Z,66.70
2023-03-06T00:17:36.026Z,66.65
2023-03-06T00:18:37.938Z,66.80
2023-03-06T00:19:39.827Z,66.69
2023-03-06T00:20:43.626Z,67.13
2023-03-06T00:21:45.590Z,67.37
2023-03-06T00:22:48.006Z,67.13
2023-03-06T00:23:49.876Z,66.83
2023-03-06T00:24:53.615Z,66.55
2023-03-06T00:25:55.501Z,66.58
2023-03-06T00:26:57.457Z,67.21
2023-03-06T00:27:59.618Z,66.95
2023-03-06T00:29:01.665Z,66.89
2023-03-06T00:30:03.927Z,66.92
2023-03-06T00:31:05.974Z,66.69
2023-03-06T00:32:08.072Z,67.23
2023-03-06T00:33:11.249Z,67.35
2023-03-06T00:34:13.279Z,67.39
2023-03-06T00:35:16.240Z,67.53
2023-03-06T00:36:18.477Z,67.73
2023-03-06T00:37:22.317Z,67.69
2023-03-06T00:38:27.527Z,67.61
2023-03-06T00:39:31.002Z,67.32
2023-03-06T00:40:32.987Z,67.00
2023-03-06T00:41:35.039Z,66.79
2023-03-06T00:42:37.016Z,66.61
2023-03-06T00:43:39.432Z,66.65
2023-03-06T00:44:42.900Z,66.84
2023-03-06T00:45:44.928Z,66.98
2023-03-06T00:46:46.896Z,66.90
2023-03-06T00:47:48.792Z,66.59
2023-03-06T00:48:50.992Z,66.40
2023-03-06T00:49:55.872Z,66.69
2023-03-06T00:50:57.829Z,66.51
2023-03-06T00:51:59.878Z,66.41
2023-03-06T00:53:01.839Z,66.86
2023-03-06T00:54:03.993Z,66.76
2023-03-06T00:55:06.412Z,66.43
2023-03-06T00:56:09.206Z,66.44
2023-03-06T00:57:11.133Z,66.52
2023-03-06T00:58:13.517Z,66.65
2023-03-06T00:59:15.886Z,67.33
2023-03-06T01:00:18.271Z,66.95
2023-03-06T01:01:20.224Z,66.50
2023-03-06T01:02:22.229Z,66.32
2023-03-06T01:03:24.139Z,66.30
2023-03-06T01:04:27.705Z,66.14
2023-03-06T01:05:30.957Z,66.76
2023-03-06T01:06:34.349Z,66.57
2023-03-06T01:07:38.235Z,66.64
2023-03-06T01:08:40.241Z,67.57
2023-03-06T01:09:42.728Z,66.71
2023-03-06T01:10:44.618Z,66.22
2023-03-06T01:11:46.813Z,65.87
2023-03-06T01:12:48.735Z,66.30
2023-03-06T01:13:50.626Z,66.70
2023-03-06T01:14:55.180Z,66.58
2023-03-06T01:16:06.626Z,66.49
2023-03-06T01:17:08.596Z,66.38
2023-03-06T01:18:11.210Z,66.68
2023-03-06T01:19:13.459Z,66.69
2023-03-06T01:20:18.563Z,66.56
2023-03-06T01:21:20.474Z,66.77
2023-03-06T01:22:22.472Z,66.49
2023-03-06T01:23:24.467Z,66.88
2023-03-06T01:24:26.435Z,66.87
2023-03-06T01:25:31.721Z,66.47
2023-03-06T01:26:34.527Z,66.98
2023-03-06T01:27:36.550Z,67.32
2023-03-06T01:28:39.247Z,67.11
2023-03-06T01:29:41.291Z,67.93
2023-03-06T01:30:43.587Z,68.67
2023-03-06T01:31:45.511Z,68.46
2023-03-06T01:32:48.314Z,68.67
2023-03-06T01:33:50.470Z,68.43
2023-03-06T01:34:52.702Z,67.96
2023-03-06T01:35:55.006Z,68.06
2023-03-06T01:36:57.085Z,68.88
2023-03-06T01:37:59.156Z,68.67
2023-03-06T01:39:01.041Z,68.08
2023-03-06T01:40:03.407Z,67.97
2023-03-06T01:41:06.244Z,68.42
2023-03-06T01:42:08.144Z,68.31
2023-03-06T01:43:28.587Z,68.04
2023-03-06T01:44:30.505Z,68.01
2023-03-06T01:45:34.974Z,68.18
2023-03-06T01:46:46.885Z,68.64
2023-03-06T01:47:48.875Z,68.55
2023-03-06T01:48:55.601Z,68.40
2023-03-06T01:50:00.512Z,68.14
2023-03-06T01:51:02.650Z,69.09
2023-03-06T01:52:11.989Z,68.97
2023-03-06T01:53:15.343Z,68.55
2023-03-06T01:54:27.856Z,68.64
2023-03-06T01:55:33.921Z,68.02
2023-03-06T01:56:36.565Z,68.37
2023-03-06T01:57:44.151Z,68.84
2023-03-06T01:58:46.774Z,68.84
2023-03-06T01:59:55.452Z,68.50
2023-03-06T02:00:59.051Z,68.51
2023-03-06T02:02:02.802Z,68.71
2023-03-06T02:03:09.950Z,68.69
2023-03-06T02:04:12.976Z,67.95
2023-03-06T02:05:14.854Z,68.31
2023-03-06T02:06:19.812Z,68.63
2023-03-06T02:07:22.432Z,68.46
2023-03-06T02:08:24.948Z,68.35
2023-03-06T02:09:30.171Z,67.65
2023-03-06T02:10:32.318Z,67.84
2023-03-06T02:11:34.211Z,68.56
2023-03-06T02:12:37.630Z,68.08
2023-03-06T02:13:40.863Z,68.42
2023-03-06T02:14:44.311Z,68.51
2023-03-06T02:15:46.286Z,69.38
2023-03-06T02:16:48.580Z,68.66
2023-03-06T02:17:52.215Z,68.81
2023-03-06T02:18:54.573Z,68.67
2023-03-06T02:20:09.240Z,68.99
2023-03-06T02:21:20.367Z,69.56
2023-03-06T02:22:25.853Z,69.11
2023-03-06T02:23:45.825Z,69.69
2023-03-06T02:25:00.716Z,70.51
2023-03-06T02:26:04.091Z,71.32
2023-03-06T02:27:08.137Z,70.44
2023-03-06T02:28:13.916Z,70.53
2023-03-06T02:29:24.063Z,70.64
2023-03-06T02:30:27.701Z,70.21
2023-03-06T02:31:32.161Z,70.25
2023-03-06T02:32:34.060Z,70.15
2023-03-06T02:33:35.981Z,70.01
2023-03-06T02:34:37.825Z,69.87
2023-03-06T02:35:40.634Z,70.05
2023-03-06T02:36:47.758Z,70.31
2023-03-06T02:37:49.940Z,70.59
2023-03-06T02:38:52.671Z,70.24
2023-03-06T02:40:05.975Z,69.49
2023-03-06T02:41:09.263Z,68.79
2023-03-06T02:42:21.552Z,68.87
2023-03-06T02:43:28.211Z,69.00
2023-03-06T02:44:30.643Z,69.01
2023-03-06T02:45:45.234Z,69.10
2023-03-06T02:46:47.142Z,69.44
2023-03-06T02:47:49.471Z,70.03
2023-03-06T02:48:51.325Z,71.00
2023-03-06T02:49:53.338Z,71.80
2023-03-06T02:50:55.236Z,71.22
2023-03-06T02:51:57.148Z,70.59
2023-03-06T02:52:59.409Z,70.36
2023-03-06T02:54:01.554Z,70.34
2023-03-06T02:55:03.809Z,70.99
2023-03-06T02:56:06.155Z,70.77
2023-03-06T02:57:08.143Z,70.74
2023-03-06T02:58:10.871Z,70.80
2023-03-06T02:59:13.335Z,70.73
2023-03-06T03:00:16.423Z,70.03
2023-03-06T03:01:18.775Z,69.78
2023-03-06T03:02:20.926Z,70.12
2023-03-06T03:03:23.216Z,70.08
2023-03-06T03:04:27.666Z,70.11
2023-03-06T03:05:30.293Z,70.02
2023-03-06T03:06:32.740Z,70.17
2023-03-06T03:07:34.905Z,70.15
2023-03-06T03:08:37.693Z,70.10
2023-03-06T03:09:39.854Z,70.56
2023-03-06T03:10:41.761Z,71.12
2023-03-06T03:11:43.740Z,71.23
2023-03-06T03:12:46.119Z,71.20
2023-03-06T03:13:48.642Z,70.82
2023-03-06T03:14:51.297Z,70.73
2023-03-06T03:16:01.469Z,70.45
2023-03-06T03:17:03.618Z,70.53
2023-03-06T03:18:05.510Z,70.92
2023-03-06T03:19:07.762Z,71.38
2023-03-06T03:20:13.906Z,71.71
2023-03-06T03:21:15.851Z,71.64
2023-03-06T03:22:19.641Z,71.70
2023-03-06T03:23:22.243Z,71.66
2023-03-06T03:24:25.217Z,72.06
2023-03-06T03:25:27.771Z,72.47
2023-03-06T03:26:30.082Z,71.99
2023-03-06T03:27:32.452Z,72.20
2023-03-06T03:28:34.585Z,72.44
2023-03-06T03:29:37.128Z,72.92
2023-03-06T03:30:40.290Z,72.28
2023-03-06T03:31:42.794Z,72.01
2023-03-06T03:32:44.687Z,72.31
2023-03-06T03:33:47.111Z,73.11
2023-03-06T03:34:49.483Z,73.72
2023-03-06T03:36:03.539Z,73.28
2023-03-06T03:37:05.909Z,72.93
2023-03-06T03:38:07.880Z,72.34
2023-03-06T03:39:10.251Z,71.79
2023-03-06T03:40:13.180Z,71.46
2023-03-06T03:41:15.082Z,72.20
2023-03-06T03:42:16.976Z,72.69
2023-03-06T03:43:19.609Z,72.09
2023-03-06T03:44:21.561Z,71.96
2023-03-06T03:45:24.205Z,71.57
2023-03-06T03:46:27.581Z,71.49
2023-03-06T03:47:29.857Z,72.04
2023-03-06T03:48:32.220Z,72.40
2023-03-06T03:49:34.886Z,72.26
2023-03-06T03:50:38.242Z,71.53
2023-03-06T03:51:40.947Z,71.11
2023-03-06T03:52:43.076Z,71.30
2023-03-06T03:53:46.146Z,70.81
2023-03-06T03:54:48.589Z,71.03
2023-03-06T03:55:50.877Z,70.94
2023-03-06T03:56:53.289Z,71.67
2023-03-06T03:57:55.668Z,71.54
2023-03-06T03:58:57.789Z,71.52
2023-03-06T04:00:00.322Z,71.25
2023-03-06T04:01:03.258Z,71.95
2023-03-06T04:02:05.812Z,72.85
2023-03-06T04:03:08.478Z,72.80
2023-03-06T04:04:10.986Z,72.40
2023-03-06T04:05:15.717Z,72.48
2023-03-06T04:06:18.427Z,72.32
2023-03-06T04:07:21.321Z,72.18
2023-03-06T04:08:25.314Z,72.25
2023-03-06T04:09:27.340Z,71.52
2023-03-06T04:10:29.490Z,71.27
2023-03-06T04:11:31.650Z,71.30
2023-03-06T04:12:34.100Z,71.03
2023-03-06T04:13:36.394Z,71.36
2023-03-06T04:14:38.453Z,71.41
2023-03-06T04:15:40.836Z,71.03
2023-03-06T04:16:42.725Z,71.21
2023-03-06T04:17:44.944Z,70.95
2023-03-06T04:18:47.236Z,70.65
2023-03-06T04:19:49.421Z,71.17
2023-03-06T04:20:52.612Z,71.84
2023-03-06T04:21:54.710Z,72.12
2023-03-06T04:22:57.038Z,72.46
2023-03-06T04:23:58.972Z,71.82
2023-03-06T04:25:00.831Z,71.03
2023-03-06T04:26:03.122Z,71.27
2023-03-06T04:27:05.362Z,71.57
2023-03-06T04:28:08.871Z,72.33
2023-03-06T04:29:10.824Z,71.99
2023-03-06T04:30:13.100Z,77.54
2023-03-06T04:31:15.236Z,73.48
2023-03-06T04:32:19.720Z,71.78
2023-03-06T04:33:23.763Z,70.97
2023-03-06T04:34:25.856Z,71.97
2023-03-06T04:35:27.889Z,100.00
2023-03-06T04:36:34.745Z,76.86
2023-03-06T04:37:36.975Z,73.89
2023-03-06T04:38:39.828Z,71.58
2023-03-06T04:39:41.688Z,70.15
2023-03-06T04:40:44.997Z,70.21
2023-03-06T04:41:47.095Z,69.52
2023-03-06T04:42:49.285Z,69.55
2023-03-06T04:43:51.921Z,69.86
2023-03-06T04:44:53.803Z,70.25
2023-03-06T04:45:55.756Z,71.75
2023-03-06T04:46:57.642Z,71.77
2023-03-06T04:47:59.943Z,71.94
2023-03-06T04:49:02.194Z,72.73
2023-03-06T04:50:04.954Z,72.80
2023-03-06T04:51:07.161Z,72.78
2023-03-06T04:52:09.054Z,72.75
2023-03-06T04:53:11.117Z,72.78
2023-03-06T04:54:13.303Z,72.84
2023-03-06T04:55:16.789Z,72.39
2023-03-06T04:56:18.941Z,72.61
2023-03-06T04:57:20.919Z,72.67
2023-03-06T04:58:22.952Z,72.51
2023-03-06T04:59:25.255Z,72.30
2023-03-06T05:00:31.904Z,72.65
2023-03-06T05:01:33.844Z,72.88
2023-03-06T05:02:36.747Z,73.58
2023-03-06T05:03:38.808Z,72.96
2023-03-06T05:04:40.934Z,73.09
2023-03-06T05:05:43.184Z,72.93
2023-03-06T05:06:45.093Z,72.86
2023-03-06T05:07:47.028Z,72.63
2023-03-06T05:08:49.009Z,72.40
2023-03-06T05:09:51.169Z,72.44
2023-03-06T05:10:56.221Z,72.87
2023-03-06T05:11:58.304Z,78.30
2023-03-06T05:13:00.318Z,74.29
2023-03-06T05:14:02.176Z,74.04
2023-03-06T05:15:05.633Z,73.92
2023-03-06T05:16:08.202Z,74.09
2023-03-06T05:17:10.511Z,74.51
2023-03-06T05:18:12.428Z,74.46
2023-03-06T05:19:14.299Z,74.33
2023-03-06T05:20:17.755Z,74.42
2023-03-06T05:21:19.695Z,74.51
2023-03-06T05:22:21.890Z,75.32
2023-03-06T05:23:23.725Z,75.71
2023-03-06T05:24:25.592Z,75.53
2023-03-06T05:25:27.736Z,75.20
2023-03-06T05:26:29.633Z,74.85
2023-03-06T05:27:31.492Z,74.59
2023-03-06T05:28:33.339Z,74.07
2023-03-06T05:29:35.164Z,74.10
2023-03-06T05:30:37.372Z,74.19
2023-03-06T05:31:39.338Z,74.43
2023-03-06T05:32:41.693Z,74.90
2023-03-06T05:33:43.592Z,74.32
2023-03-06T05:34:45.441Z,74.11
2023-03-06T05:35:48.686Z,74.52
2023-03-06T05:36:50.666Z,74.95
2023-03-06T05:37:52.820Z,75.52
2023-03-06T05:38:55.159Z,75.29
2023-03-06T05:39:57.071Z,74.99
2023-03-06T05:40:59.268Z,74.88
2023-03-06T05:42:01.213Z,74.79
2023-03-06T05:43:03.109Z,74.97
2023-03-06T05:44:05.149Z,75.24
2023-03-06T05:45:07.856Z,75.54
2023-03-06T05:46:11.537Z,74.85
2023-03-06T05:47:13.623Z,74.88
2023-03-06T05:48:15.533Z,75.54
2023-03-06T05:49:17.456Z,75.76
2023-03-06T05:50:19.391Z,76.25
2023-03-06T05:51:21.637Z,78.51
2023-03-06T05:52:23.489Z,100.00
2023-03-06T05:53:26.749Z,89.82
2023-03-06T05:54:28.600Z,95.50
2023-03-06T05:55:30.629Z,89.81
2023-03-06T05:56:32.876Z,74.81
2023-03-06T05:57:34.736Z,69.85
2023-03-06T05:58:37.197Z,69.17
2023-03-06T05:59:39.129Z,69.83
2023-03-06T06:00:41.148Z,69.17
2023-03-06T06:01:43.512Z,70.02
2023-03-06T06:02:46.626Z,71.43
2023-03-06T06:03:48.616Z,72.75
2023-03-06T06:04:50.499Z,73.79
2023-03-06T06:05:52.780Z,73.29
2023-03-06T06:07:00.207Z,74.01
2023-03-06T06:08:02.337Z,74.06
2023-03-06T06:09:04.563Z,74.41
2023-03-06T06:10:07.279Z,73.80
2023-03-06T06:11:11.011Z,74.31
2023-03-06T06:12:14.355Z,73.12
2023-03-06T06:13:16.306Z,75.70
2023-03-06T06:14:18.226Z,74.56
2023-03-06T06:15:20.122Z,74.54
2023-03-06T06:16:22.515Z,74.15
2023-03-06T06:17:24.851Z,74.57
2023-03-06T06:18:26.832Z,74.76
2023-03-06T06:19:30.283Z,74.42
2023-03-06T06:20:32.327Z,73.83
2023-03-06T06:21:34.300Z,73.89
2023-03-06T06:22:38.006Z,73.42
2023-03-06T06:23:40.541Z,74.20
2023-03-06T06:24:42.460Z,74.61
2023-03-06T06:25:44.376Z,74.26
2023-03-06T06:26:46.333Z,74.32
2023-03-06T06:27:48.481Z,74.72
2023-03-06T06:28:50.549Z,74.92
2023-03-06T06:29:52.647Z,75.89
2023-03-06T06:30:54.698Z,76.23
2023-03-06T06:31:56.951Z,76.16
2023-03-06T06:32:59.925Z,75.62
2023-03-06T06:34:01.810Z,76.23
2023-03-06T06:35:04.380Z,75.82
2023-03-06T06:36:14.338Z,76.35
2023-03-06T06:37:16.758Z,76.67
2023-03-06T06:38:19.719Z,75.80
2023-03-06T06:39:23.438Z,76.26
2023-03-06T06:40:27.577Z,76.22
2023-03-06T06:41:50.690Z,75.89
2023-03-06T06:42:53.104Z,75.79
2023-03-06T06:43:56.307Z,75.34
2023-03-06T06:44:59.223Z,74.49
2023-03-06T06:46:23.068Z,74.52
2023-03-06T06:47:25.076Z,75.36
2023-03-06T06:48:27.547Z,75.52
2023-03-06T06:49:29.710Z,75.17
2023-03-06T06:50:31.587Z,75.04
2023-03-06T06:51:34.076Z,75.04
2023-03-06T06:52:35.957Z,75.34
2023-03-06T06:53:37.804Z,75.39
2023-03-06T06:54:39.939Z,74.91
2023-03-06T06:55:42.955Z,75.44
2023-03-06T06:56:44.783Z,75.55
2023-03-06T06:57:46.725Z,76.02
2023-03-06T06:58:48.642Z,75.67
2023-03-06T06:59:53.358Z,74.88
2023-03-06T07:00:55.886Z,75.77
2023-03-06T07:01:57.780Z,75.08
2023-03-06T07:02:59.694Z,74.83
2023-03-06T07:04:01.946Z,74.64
2023-03-06T07:05:05.597Z,74.45
2023-03-06T07:06:07.979Z,74.60
2023-03-06T07:07:10.073Z,74.09
2023-03-06T07:08:11.968Z,74.92
2023-03-06T07:09:14.361Z,74.53
2023-03-06T07:10:17.039Z,74.67
2023-03-06T07:11:20.103Z,75.07
2023-03-06T07:12:22.148Z,75.12
2023-03-06T07:13:24.093Z,75.90
2023-03-06T07:14:26.020Z,75.08
2023-03-06T07:15:29.947Z,75.39
2023-03-06T07:16:31.920Z,75.59
2023-03-06T07:17:34.108Z,74.88
2023-03-06T07:18:36.063Z,74.85
2023-03-06T07:19:38.686Z,74.83
2023-03-06T07:20:42.069Z,74.88
2023-03-06T07:21:43.945Z,74.91
2023-03-06T07:22:51.246Z,74.55
2023-03-06T07:23:54.398Z,74.12
2023-03-06T07:24:56.346Z,73.60
2023-03-06T07:25:59.165Z,73.96
2023-03-06T07:27:01.081Z,73.98
2023-03-06T07:28:02.965Z,73.72
2023-03-06T07:29:05.106Z,73.83
2023-03-06T07:30:08.197Z,73.69
2023-03-06T07:31:11.638Z,73.67
2023-03-06T07:32:13.565Z,74.56
2023-03-06T07:33:16.039Z,74.21
2023-03-06T07:34:17.886Z,73.90
2023-03-06T07:35:20.935Z,73.68
2023-03-06T07:36:24.212Z,73.50
2023-03-06T07:37:26.136Z,73.97
2023-03-06T07:38:28.050Z,74.11
2023-03-06T07:39:30.361Z,73.32
2023-03-06T07:40:32.263Z,72.77
2023-03-06T07:41:34.836Z,72.66
2023-03-06T07:42:36.673Z,72.80
2023-03-06T07:43:38.876Z,72.52
2023-03-06T07:44:42.072Z,72.93
2023-03-06T07:45:44.052Z,72.81
2023-03-06T07:46:46.306Z,72.71
2023-03-06T07:47:50.670Z,72.07
2023-03-06T07:48:52.633Z,71.50
2023-03-06T07:49:56.435Z,72.50
2023-03-06T07:51:03.342Z,72.94
2023-03-06T07:52:05.659Z,72.94
2023-03-06T07:53:07.638Z,72.74
2023-03-06T07:54:09.743Z,72.04
2023-03-06T07:55:12.113Z,71.72
2023-03-06T07:56:14.414Z,72.06
2023-03-06T07:57:16.663Z,73.05
2023-03-06T07:58:18.528Z,72.42
2023-03-06T07:59:20.391Z,72.36
2023-03-06T08:00:22.569Z,72.99
2023-03-06T08:01:25.127Z,73.19
2023-03-06T08:02:27.063Z,73.19
2023-03-06T08:03:28.981Z,72.49
2023-03-06T08:04:30.920Z,72.31
2023-03-06T08:05:32.841Z,72.68
2023-03-06T08:06:35.181Z,73.22
2023-03-06T08:07:37.133Z,72.95
2023-03-06T08:08:40.676Z,72.96
2023-03-06T08:09:42.522Z,72.25
2023-03-06T08:10:49.052Z,72.00
2023-03-06T08:11:51.597Z,72.37
2023-03-06T08:12:53.645Z,72.38
2023-03-06T08:13:57.398Z,73.10
2023-03-06T08:14:59.274Z,73.39
2023-03-06T08:16:01.461Z,73.00
2023-03-06T08:17:03.830Z,72.55
2023-03-06T08:18:05.728Z,72.29
2023-03-06T08:19:07.939Z,71.73
2023-03-06T08:20:10.572Z,72.21
2023-03-06T08:21:14.859Z,72.03
2023-03-06T08:22:17.073Z,71.51
2023-03-06T08:23:18.990Z,71.77
2023-03-06T08:24:20.964Z,72.57
2023-03-06T08:25:24.671Z,73.00
2023-03-06T08:26:29.410Z,72.36
2023-03-06T08:27:32.956Z,71.56
2023-03-06T08:28:35.315Z,72.54
2023-03-06T08:29:37.225Z,72.76
2023-03-06T08:30:39.144Z,73.08
2023-03-06T08:31:46.140Z,72.79
2023-03-06T08:32:48.533Z,73.15
2023-03-06T08:33:50.620Z,72.48
2023-03-06T08:34:52.907Z,71.20
2023-03-06T08:35:54.841Z,70.51
2023-03-06T08:36:56.660Z,70.52
2023-03-06T08:37:58.834Z,70.63
2023-03-06T08:39:01.334Z,70.73
2023-03-06T08:40:04.714Z,71.13
2023-03-06T08:41:06.764Z,71.40
2023-03-06T08:42:10.540Z,71.06
2023-03-06T08:43:14.148Z,70.75
2023-03-06T08:44:16.246Z,70.53
2023-03-06T08:45:18.110Z,69.61
2023-03-06T08:46:23.375Z,69.18
2023-03-06T08:47:25.356Z,69.71
2023-03-06T08:48:27.925Z,70.33
2023-03-06T08:49:30.639Z,69.88
2023-03-06T08:50:32.565Z,70.55
2023-03-06T08:51:34.672Z,70.49
2023-03-06T08:52:36.576Z,70.33
2023-03-06T08:53:43.897Z,68.88
2023-03-06T08:54:46.835Z,68.65
2023-03-06T08:55:48.681Z,69.26
2023-03-06T08:56:50.538Z,69.39
2023-03-06T08:57:52.393Z,69.60
2023-03-06T08:58:56.063Z,69.59
2023-03-06T08:59:57.929Z,68.30
2023-03-06T09:00:59.901Z,68.87
2023-03-06T09:02:01.990Z,68.77
2023-03-06T09:03:04.842Z,67.78
2023-03-06T09:04:11.096Z,68.15
2023-03-06T09:05:12.953Z,69.56
2023-03-06T09:06:15.537Z,69.16
2023-03-06T09:07:17.459Z,72.96
2023-03-06T09:08:19.303Z,70.19
2023-03-06T09:09:21.489Z,69.40
2023-03-06T09:10:25.681Z,69.93
2023-03-06T09:11:28.036Z,68.97
2023-03-06T09:12:32.600Z,88.44
2023-03-06T09:13:39.183Z,75.68
2023-03-06T09:14:41.488Z,67.57
2023-03-06T09:15:43.391Z,66.44
2023-03-06T09:16:45.256Z,71.35
2023-03-06T09:17:50.885Z,67.35
2023-03-06T09:18:54.102Z,67.61
2023-03-06T09:19:56.292Z,67.77
2023-03-06T09:20:58.209Z,66.99
2023-03-06T09:22:01.066Z,67.92
2023-03-06T09:23:03.038Z,68.26
2023-03-06T09:24:05.077Z,67.95
2023-03-06T09:25:07.606Z,67.34
2023-03-06T09:26:09.553Z,67.78
2023-03-06T09:27:11.462Z,67.79
2023-03-06T09:28:13.283Z,68.16
2023-03-06T09:29:16.575Z,68.02
2023-03-06T09:30:19.161Z,69.01
2023-03-06T09:31:21.362Z,69.16
2023-03-06T09:32:24.274Z,68.73
2023-03-06T09:33:28.728Z,68.54
2023-03-06T09:34:30.674Z,68.10
2023-03-06T09:35:32.965Z,67.02
2023-03-06T09:36:49.282Z,66.22
2023-03-06T09:37:56.948Z,66.16
2023-03-06T09:38:58.837Z,65.49
2023-03-06T09:40:00.722Z,64.81
2023-03-06T09:41:11.744Z,63.96
2023-03-06T09:42:20.310Z,63.41
2023-03-06T09:43:28.245Z,63.64
2023-03-06T09:44:33.606Z,64.57
2023-03-06T09:45:37.292Z,64.48
2023-03-06T09:47:00.903Z,63.39
2023-03-06T09:48:13.608Z,62.75
2023-03-06T09:50:01.741Z,63.81
2023-03-06T09:51:12.566Z,64.08
2023-03-06T09:52:30.002Z,62.36
2023-03-06T09:54:02.652Z,59.60
2023-03-06T09:55:16.459Z,58.53
2023-03-06T09:56:22.074Z,59.03
2023-03-06T09:57:35.377Z,59.33
2023-03-06T09:58:47.508Z,59.05
2023-03-06T09:59:53.848Z,57.55
2023-03-06T10:01:03.708Z,57.05
2023-03-06T10:02:21.013Z,56.83
2023-03-06T10:03:54.941Z,57.64
2023-03-06T10:05:01.126Z,57.50
2023-03-06T10:06:23.075Z,57.04
2023-03-06T10:07:43.325Z,55.85
2023-03-06T10:08:54.118Z,57.49
2023-03-06T10:10:06.018Z,57.42
2023-03-06T10:11:11.534Z,57.27
2023-03-06T10:12:24.511Z,58.52
2023-03-06T10:13:39.526Z,58.23
2023-03-06T10:15:09.015Z,57.13
2023-03-06T10:16:23.587Z,57.24
2023-03-06T10:17:30.780Z,56.36
2023-03-06T10:18:33.460Z,56.31
2023-03-06T10:19:37.937Z,56.31
2023-03-06T10:21:18.631Z,55.81
2023-03-06T10:22:52.576Z,55.90
2023-03-06T10:24:21.042Z,56.95
2023-03-06T10:25:26.169Z,55.88
2023-03-06T10:26:40.347Z,56.43
2023-03-06T10:27:48.237Z,56.59
2023-03-06T10:28:52.917Z,56.35
2023-03-06T10:30:23.161Z,56.50
2023-03-06T10:31:27.788Z,56.29
2023-03-06T10:32:51.215Z,56.42
2023-03-06T10:33:58.111Z,56.46
2023-03-06T10:35:01.913Z,57.46
2023-03-06T10:36:04.693Z,55.90
2023-03-06T10:37:21.566Z,55.68
2023-03-06T10:38:37.364Z,55.94
2023-03-06T10:39:39.630Z,56.91
2023-03-06T10:41:10.962Z,56.35
2023-03-06T10:42:12.853Z,56.90
2023-03-06T10:43:14.702Z,58.09
2023-03-06T10:44:17.386Z,57.86
2023-03-06T10:45:19.464Z,58.35
2023-03-06T10:46:39.839Z,58.91
2023-03-06T10:47:42.902Z,58.63
2023-03-06T10:48:58.003Z,58.37
2023-03-06T10:50:02.522Z,59.29
2023-03-06T10:51:25.602Z,58.34
2023-03-06T10:52:33.617Z,58.78
2023-03-06T10:53:35.510Z,58.95
2023-03-06T10:54:43.429Z,59.48
2023-03-06T10:55:59.209Z,59.75
2023-03-06T10:57:17.664Z,60.14
2023-03-06T10:58:29.070Z,59.56
2023-03-06T10:59:31.075Z,59.32
2023-03-06T11:00:38.283Z,59.29
2023-03-06T11:01:42.948Z,59.75
2023-03-06T11:02:44.929Z,59.73
2023-03-06T11:03:47.864Z,59.92
2023-03-06T11:04:53.387Z,61.36
2023-03-06T11:06:07.404Z,61.20
2023-03-06T11:07:23.356Z,60.25
2023-03-06T11:08:25.212Z,59.89
2023-03-06T11:09:27.386Z,60.15
2023-03-06T11:10:31.753Z,59.13
2023-03-06T11:11:37.851Z,58.71
2023-03-06T11:12:42.537Z,59.10
2023-03-06T11:13:44.598Z,58.71
2023-03-06T11:14:46.960Z,58.33
2023-03-06T11:15:57.514Z,58.00
2023-03-06T11:16:59.468Z,59.30
2023-03-06T11:18:23.988Z,58.60
2023-03-06T11:19:28.788Z,58.01
2023-03-06T11:20:51.948Z,57.99
2023-03-06T11:22:05.962Z,57.44
2023-03-06T11:23:17.284Z,57.80
2023-03-06T11:24:20.917Z,57.67
2023-03-06T11:25:29.238Z,57.93
2023-03-06T11:26:41.188Z,57.93
2023-03-06T11:27:46.977Z,57.84
2023-03-06T11:29:12.153Z,57.33
2023-03-06T11:30:21.524Z,57.19
2023-03-06T11:31:28.237Z,57.73
2023-03-06T11:32:36.892Z,57.74
2023-03-06T11:34:00.282Z,57.33
2023-03-06T11:35:05.772Z,56.06
2023-03-06T11:36:25.052Z,54.54
2023-03-06T11:37:32.720Z,54.67
2023-03-06T11:38:52.567Z,54.15
2023-03-06T11:40:13.627Z,52.11
2023-03-06T11:41:32.716Z,53.38
2023-03-06T11:42:40.751Z,53.20
2023-03-06T11:44:06.435Z,52.45
2023-03-06T11:45:19.179Z,52.01
2023-03-06T11:46:26.393Z,51.81
2023-03-06T11:47:46.311Z,52.54
2023-03-06T11:49:05.282Z,52.27
2023-03-06T11:50:22.993Z,51.82
2023-03-06T11:51:33.365Z,52.03
2023-03-06T11:52:47.539Z,52.53
2023-03-06T11:53:49.797Z,52.98
2023-03-06T11:54:57.757Z,52.06
2023-03-06T11:56:16.189Z,53.63
2023-03-06T11:57:23.105Z,53.86
2023-03-06T11:58:48.863Z,53.47
2023-03-06T12:00:06.567Z,52.50
2023-03-06T12:01:43.415Z,52.42
2023-03-06T12:03:05.701Z,52.74
2023-03-06T12:04:46.744Z,52.66
2023-03-06T12:06:10.494Z,52.35
2023-03-06T12:07:41.913Z,52.29
2023-03-06T12:09:09.808Z,52.05
2023-03-06T12:10:14.495Z,52.12
2023-03-06T12:11:45.684Z,52.75
2023-03-06T12:12:53.159Z,53.29
2023-03-06T12:14:13.922Z,53.06
2023-03-06T12:15:37.787Z,52.80
2023-03-06T12:16:48.291Z,52.61
2023-03-06T12:18:05.372Z,51.73
2023-03-06T12:19:41.484Z,52.30
2023-03-06T12:21:10.153Z,53.16
2023-03-06T12:22:20.805Z,54.07
2023-03-06T12:23:50.133Z,55.33
2023-03-06T12:25:15.939Z,56.37
2023-03-06T12:26:23.454Z,57.17
2023-03-06T12:27:34.412Z,56.76
2023-03-06T12:28:42.366Z,57.27
2023-03-06T12:30:06.479Z,57.73
2023-03-06T12:31:16.068Z,57.63
2023-03-06T12:32:27.760Z,58.36
2023-03-06T12:33:37.125Z,58.60
2023-03-06T12:35:01.118Z,59.44
2023-03-06T12:36:18.240Z,59.32
2023-03-06T12:37:35.433Z,59.73
2023-03-06T12:38:58.521Z,59.76
2023-03-06T12:40:21.505Z,60.14
2023-03-06T12:41:38.864Z,60.68
2023-03-06T12:43:04.815Z,61.09
2023-03-06T12:44:15.562Z,61.07
2023-03-06T12:45:22.823Z,61.28
2023-03-06T12:46:27.346Z,61.15
2023-03-06T12:47:33.278Z,61.42
2023-03-06T12:48:37.512Z,61.56
2023-03-06T12:49:48.463Z,61.75
2023-03-06T12:50:51.579Z,61.37
2023-03-06T12:51:55.572Z,61.89
2023-03-06T12:53:07.326Z,61.95
2023-03-06T12:54:10.597Z,61.99
2023-03-06T12:55:16.722Z,62.39
2023-03-06T12:56:20.815Z,62.81
2023-03-06T12:57:24.974Z,62.57
2023-03-06T12:58:30.063Z,62.92
2023-03-06T12:59:44.621Z,63.22
2023-03-06T13:01:04.162Z,63.31
2023-03-06T13:02:34.254Z,63.88
2023-03-06T13:04:05.149Z,63.61
2023-03-06T13:05:25.850Z,63.25
2023-03-06T13:07:15.115Z,63.42
2023-03-06T13:08:44.255Z,63.70
2023-03-06T13:10:02.736Z,63.38
2023-03-06T13:11:19.385Z,63.92
2023-03-06T13:12:40.019Z,63.43
2023-03-06T13:13:45.142Z,63.48
2023-03-06T13:14:54.023Z,63.66
2023-03-06T13:16:14.723Z,63.10
2023-03-06T13:17:38.139Z,63.55
2023-03-06T13:18:54.296Z,63.73
2023-03-06T13:20:14.288Z,62.76
2023-03-06T13:21:54.353Z,62.07
2023-03-06T13:22:56.804Z,62.37
2023-03-06T13:24:32.439Z,63.00
2023-03-06T13:25:35.623Z,62.64
2023-03-06T13:26:37.424Z,63.08
2023-03-06T13:27:54.673Z,63.50
2023-03-06T13:28:58.261Z,63.66
2023-03-06T13:30:27.216Z,64.46
2023-03-06T13:31:36.453Z,64.09
2023-03-06T13:32:38.469Z,64.15
2023-03-06T13:33:40.376Z,64.49
2023-03-06T13:34:49.963Z,65.00
2023-03-06T13:35:55.907Z,64.53
2023-03-06T13:37:23.096Z,64.67
2023-03-06T13:38:32.599Z,64.41
2023-03-06T13:39:58.345Z,64.19
2023-03-06T13:41:19.021Z,63.99
2023-03-06T13:42:32.840Z,63.85
2023-03-06T13:43:43.879Z,63.67
2023-03-06T13:44:49.678Z,63.57
2023-03-06T13:45:51.720Z,64.07
2023-03-06T13:47:04.889Z,63.94
2023-03-06T13:48:30.252Z,63.52
2023-03-06T13:49:30.015Z,63.32
2023-03-06T13:50:47.076Z,63.36
2023-03-06T13:51:51.855Z,62.80
2023-03-06T13:53:16.736Z,62.29
2023-03-06T13:54:39.782Z,62.47
2023-03-06T13:56:10.158Z,62.46
2023-03-06T13:57:12.006Z,62.86
2023-03-06T13:58:25.433Z,62.35
2023-03-06T14:00:08.199Z,62.71
2023-03-06T14:01:53.079Z,62.94
2023-03-06T14:03:22.810Z,63.27
2023-03-06T14:04:34.328Z,63.67
2023-03-06T14:05:47.942Z,62.70
2023-03-06T14:07:12.023Z,62.62
2023-03-06T14:08:20.701Z,62.70
2023-03-06T14:09:44.266Z,63.07
2023-03-06T14:10:49.282Z,63.02
2023-03-06T14:12:00.726Z,62.86
2023-03-06T14:13:06.632Z,63.00
2023-03-06T14:14:11.996Z,63.05